Time;durP1;ratioP1;P1;durP2;ratioP2;P2;SDS_P1;SDS_P2;PMS_P1;PMS_P2;Temp;Humidity;BMP_temperature;BMP_pressure;BME280_temperature;BME280_humidity;BME280_pressure;Samples;Min_cycle;Max_cycle;Signal;HPM_P1;HPM_P2
2021/03/19 00:00:26;;;;;;;5.78;2.60;;;6.70;90.50;;;;;;4992939;28;20030;-87
2021/03/19 00:02:53;;;;;;;4.22;2.58;;;6.70;90.50;;;;;;4976579;28;20042;-88
2021/03/19 00:05:21;;;;;;;7.63;2.70;;;6.70;90.50;;;;;;4991487;28;20057;-87
2021/03/19 00:07:54;;;;;;;5.30;2.45;;;6.70;90.50;;;;;;4994585;28;20026;-88
2021/03/19 00:10:26;;;;;;;8.25;3.22;;;6.60;90.40;;;;;;4976052;28;20030;-88
2021/03/19 00:12:54;;;;;;;6.28;2.83;;;6.60;90.50;;;;;;4993700;28;20037;-88
2021/03/19 00:15:25;;;;;;;4.80;2.70;;;6.60;90.50;;;;;;4994446;28;20042;-87
2021/03/19 00:17:51;;;;;;;;;;;6.60;90.50;;;;;;4977732;28;20019;-88
2021/03/19 00:20:17;;;;;;;6.82;2.80;;;6.50;90.50;;;;;;4976249;28;20110;-87
2021/03/19 00:22:44;;;;;;;5.38;2.60;;;6.50;90.60;;;;;;4977035;28;20467;-87
2021/03/19 00:25:11;;;;;;;5.18;2.70;;;6.40;90.60;;;;;;4976319;28;20026;-86
2021/03/19 00:27:37;;;;;;;5.40;2.55;;;6.40;90.70;;;;;;4975926;28;20612;-87
2021/03/19 00:30:09;;;;;;;7.78;3.13;;;6.40;90.70;;;;;;4976358;28;20479;-87
2021/03/19 00:32:35;;;;;;;5.45;3.13;;;6.40;90.70;;;;;;4975781;28;20471;-87
2021/03/19 00:35:01;;;;;;;5.70;2.90;;;6.40;90.60;;;;;;4993807;28;20034;-87
2021/03/19 00:37:27;;;;;;;4.45;2.65;;;6.30;90.60;;;;;;4994389;28;20524;-87
2021/03/19 00:39:53;;;;;;;6.60;3.33;;;6.30;90.60;;;;;;4979616;28;20026;-87
2021/03/19 00:42:18;;;;;;;4.35;2.78;;;6.30;90.70;;;;;;4979286;28;20267;-87
2021/03/19 00:44:44;;;;;;;6.20;2.97;;;6.20;90.60;;;;;;4967485;28;20162;-88
2021/03/19 00:47:10;;;;;;;5.40;3.03;;;6.20;90.60;;;;;;4998241;28;20030;-86
2021/03/19 00:49:36;;;;;;;4.68;2.88;;;6.20;90.60;;;;;;4994419;28;20031;-87
2021/03/19 00:52:02;;;;;;;4.57;2.78;;;6.10;90.60;;;;;;4994080;28;20026;-85
2021/03/19 00:54:28;;;;;;;5.38;2.88;;;6.10;90.70;;;;;;5008111;28;20049;-87
2021/03/19 00:56:54;;;;;;;5.78;3.08;;;6.10;90.80;;;;;;4988079;28;20022;-87
2021/03/19 00:59:19;;;;;;;4.70;3.00;;;6.10;90.80;;;;;;4965353;28;20038;-86
2021/03/19 01:01:45;;;;;;;7.13;3.38;;;6.00;90.80;;;;;;4975909;28;20113;-87
2021/03/19 01:04:12;;;;;;;7.40;3.28;;;6.00;90.80;;;;;;4992738;28;20230;-88
2021/03/19 01:06:38;;;;;;;6.03;3.28;;;6.00;90.80;;;;;;4991802;28;20030;-87
2021/03/19 01:09:05;;;;;;;4.30;3.00;;;6.00;90.90;;;;;;4992240;28;20030;-87
2021/03/19 01:11:30;;;;;;;6.15;3.80;;;5.90;90.80;;;;;;4976062;28;20034;-87
2021/03/19 01:13:56;;;;;;;6.78;3.47;;;5.90;90.90;;;;;;4975702;28;20494;-88
2021/03/19 01:16:23;;;;;;;6.00;3.83;;;5.90;91.20;;;;;;4975270;28;20621;-87
2021/03/19 01:18:49;;;;;;;7.55;3.88;;;5.90;90.90;;;;;;4975867;28;20033;-88
2021/03/19 01:21:16;;;;;;;5.60;3.88;;;5.80;90.90;;;;;;4994184;28;20026;-88
2021/03/19 01:23:45;;;;;;;5.93;3.45;;;5.80;90.90;;;;;;4960647;28;20474;-88
2021/03/19 01:26:14;;;;;;;7.60;3.40;;;5.80;90.90;;;;;;4976846;28;20053;-88
2021/03/19 01:28:40;;;;;;;5.80;4.00;;;5.80;91.00;;;;;;4994410;28;20027;-88
2021/03/19 01:31:06;;;;;;;6.38;4.07;;;5.80;91.00;;;;;;4977060;28;20049;-86
2021/03/19 01:33:33;;;;;;;6.28;3.83;;;5.70;91.00;;;;;;4976896;28;20041;-88
2021/03/19 01:36:04;;;;;;;8.52;4.43;;;5.70;91.00;;;;;;4976729;28;20022;-88
2021/03/19 01:38:30;;;;;;;5.32;3.83;;;5.70;91.00;;;;;;4977232;28;20023;-88
2021/03/19 01:40:56;;;;;;;7.32;4.65;;;5.70;91.10;;;;;;4976850;28;20443;-88
2021/03/19 01:43:38;;;;;;;7.07;4.68;;;5.60;91.10;;;;;;4975214;28;20033;-88
2021/03/19 01:46:22;;;;;;;7.80;4.32;;;5.60;91.10;;;;;;4993508;28;20105;-88
2021/03/19 01:49:27;;;;;;;8.50;4.95;;;5.60;91.10;;;;;;4992226;28;20034;-87
2021/03/19 01:52:30;;;;;;;6.72;4.38;;;5.60;91.10;;;;;;4982576;28;20026;-89
2021/03/19 01:55:33;;;;;;;7.88;4.47;;;5.50;91.20;;;;;;4989225;28;20463;-88
2021/03/19 01:58:37;;;;;;;8.40;4.68;;;5.50;91.20;;;;;;4976637;28;20034;-87
2021/03/19 02:01:40;;;;;;;8.95;4.85;;;5.40;91.20;;;;;;4984619;28;20117;-88
2021/03/19 02:04:43;;;;;;;8.75;5.18;;;5.50;91.30;;;;;;4982354;28;20030;-88
2021/03/19 02:07:46;;;;;;;10.80;5.65;;;5.40;91.20;;;;;;4992787;28;20107;-86
2021/03/19 02:10:50;;;;;;;7.72;4.40;;;5.30;91.20;;;;;;4993049;28;20019;-88
2021/03/19 02:13:53;;;;;;;8.10;4.80;;;5.30;91.30;;;;;;4991369;28;20033;-87
2021/03/19 02:16:56;;;;;;;7.55;4.57;;;5.30;91.40;;;;;;4981973;28;20088;-87
2021/03/19 02:19:59;;;;;;;6.63;4.30;;;5.30;91.40;;;;;;4979468;28;20058;-88
2021/03/19 02:23:02;;;;;;;10.77;5.38;;;5.20;91.40;;;;;;4991792;28;20490;-87
2021/03/19 02:26:06;;;;;;;6.43;4.22;;;5.20;91.40;;;;;;4991471;28;20034;-87
2021/03/19 02:29:08;;;;;;;7.85;5.00;;;5.20;91.50;;;;;;4992013;28;20034;-88
2021/03/19 02:32:00;;;;;;;6.75;4.50;;;5.10;91.40;;;;;;4983503;28;20030;-87
2021/03/19 02:34:48;;;;;;;9.68;4.90;;;5.10;91.50;;;;;;4971638;28;20103;-86
2021/03/19 02:37:21;;;;;;;8.30;4.63;;;5.10;91.50;;;;;;4988678;28;20037;-88
2021/03/19 02:39:47;;;;;;;7.80;4.90;;;5.10;91.50;;;;;;4991833;28;20103;-88
2021/03/19 02:42:15;;;;;;;8.27;4.25;;;5.10;91.50;;;;;;4978425;28;20086;-87
2021/03/19 02:44:42;;;;;;;9.23;4.90;;;5.00;91.50;;;;;;4995731;28;20040;-88
2021/03/19 02:47:09;;;;;;;7.75;4.47;;;5.00;91.50;;;;;;4994129;28;20027;-88
2021/03/19 02:49:34;;;;;;;8.35;4.60;;;5.00;91.50;;;;;;4994110;28;20029;-87
2021/03/19 02:52:00;;;;;;;8.65;5.00;;;5.00;91.50;;;;;;4995085;28;20030;-88
2021/03/19 02:54:26;;;;;;;9.38;4.90;;;5.00;91.60;;;;;;4995465;28;20027;-89
2021/03/19 02:56:52;;;;;;;8.27;4.50;;;4.90;91.50;;;;;;4995234;28;20033;-88
2021/03/19 02:59:18;;;;;;;9.00;4.40;;;5.00;91.50;;;;;;4978278;28;20034;-88
2021/03/19 03:01:45;;;;;;;8.18;4.60;;;4.90;91.60;;;;;;4977616;28;20034;-88
2021/03/19 03:04:11;;;;;;;9.98;4.78;;;4.90;91.60;;;;;;4979649;28;20037;-87
2021/03/19 03:06:46;;;;;;;9.18;5.28;;;4.90;91.60;;;;;;4978112;28;20034;-88
2021/03/19 03:09:16;;;;;;;7.95;3.95;;;4.90;91.60;;;;;;4994984;28;20387;-88
2021/03/19 03:11:43;;;;;;;8.00;4.93;;;4.90;91.60;;;;;;4993936;28;20026;-88
2021/03/19 03:14:13;;;;;;;7.78;4.93;;;4.80;91.60;;;;;;4977449;28;20478;-88
2021/03/19 03:16:40;;;;;;;8.05;4.53;;;4.80;91.60;;;;;;4993773;28;20081;-88
2021/03/19 03:19:09;;;;;;;6.43;4.22;;;4.80;91.60;;;;;;4993958;28;20023;-87
2021/03/19 03:21:35;;;;;;;8.38;4.43;;;4.80;91.60;;;;;;4994871;28;20551;-87
2021/03/19 03:24:01;;;;;;;8.40;4.43;;;4.80;91.60;;;;;;4961476;28;20376;-88
2021/03/19 03:26:28;;;;;;;8.25;4.57;;;4.70;91.60;;;;;;4978547;28;20061;-87
2021/03/19 03:28:54;;;;;;;7.85;4.32;;;4.70;91.60;;;;;;4978826;28;20034;-87
2021/03/19 03:31:19;;;;;;;6.32;4.07;;;4.70;91.60;;;;;;5011372;28;20033;-85
2021/03/19 03:33:45;;;;;;;9.18;4.80;;;4.70;91.60;;;;;;4962485;28;20042;-87
2021/03/19 03:36:11;;;;;;;6.45;4.10;;;4.70;91.60;;;;;;4961921;28;20073;-86
2021/03/19 03:38:37;;;;;;;7.68;4.50;;;4.70;91.60;;;;;;5005169;28;20092;-89
2021/03/19 03:41:10;;;;;;;8.75;3.88;;;4.70;91.60;;;;;;4999107;28;20030;-88
2021/03/19 03:43:36;;;;;;;8.93;4.00;;;4.60;91.70;;;;;;4993125;28;20030;-88
2021/03/19 03:46:05;;;;;;;7.35;4.55;;;4.60;91.70;;;;;;4993037;28;20037;-87
2021/03/19 03:48:33;;;;;;;7.63;4.10;;;4.60;91.60;;;;;;4993359;28;20080;-89
2021/03/19 03:51:00;;;;;;;8.73;4.03;;;4.60;91.60;;;;;;4976973;28;20395;-88
2021/03/19 03:53:26;;;;;;;8.45;4.60;;;4.50;91.60;;;;;;4992591;28;20022;-89
2021/03/19 03:55:52;;;;;;;7.20;4.13;;;4.50;91.60;;;;;;4976792;28;20045;-89
2021/03/19 03:58:19;;;;;;;5.75;3.75;;;4.50;91.60;;;;;;4994028;28;20066;-88
2021/03/19 04:00:45;;;;;;;9.05;4.43;;;4.50;91.60;;;;;;4994016;28;20033;-88
2021/03/19 04:03:11;;;;;;;6.63;3.70;;;4.50;91.60;;;;;;4994031;28;20030;-88
2021/03/19 04:05:40;;;;;;;6.88;4.05;;;4.50;91.60;;;;;;4973539;28;20039;-89
2021/03/19 04:08:09;;;;;;;9.45;4.68;;;4.40;91.60;;;;;;4988754;28;20122;-89
2021/03/19 04:10:35;;;;;;;7.10;4.72;;;4.40;91.60;;;;;;4959708;28;20075;-88
2021/03/19 04:13:02;;;;;;;6.10;3.90;;;4.40;91.60;;;;;;4957496;28;20039;-89
2021/03/19 04:15:28;;;;;;;6.45;4.28;;;4.30;91.90;;;;;;4973604;28;20038;-88
2021/03/19 04:17:56;;;;;;;7.07;4.32;;;4.30;91.60;;;;;;4957501;28;20030;-88
2021/03/19 04:20:24;;;;;;;6.80;4.03;;;4.30;91.60;;;;;;4957372;28;20190;-88
2021/03/19 04:22:50;;;;;;;7.80;3.88;;;4.30;91.60;;;;;;4937939;29;20035;-88
2021/03/19 04:25:16;;;;;;;9.13;4.47;;;4.30;91.60;;;;;;4940486;28;20504;-87
2021/03/19 04:27:52;;;;;;;8.90;4.35;;;4.20;91.60;;;;;;4956797;28;20066;-88
2021/03/19 04:30:29;;;;;;;8.77;4.07;;;4.20;91.60;;;;;;4973314;28;20049;-87
2021/03/19 04:32:57;;;;;;;9.40;4.35;;;4.20;91.60;;;;;;4956232;28;20126;-89
2021/03/19 04:35:23;;;;;;;9.38;4.20;;;4.20;91.60;;;;;;4956053;28;20054;-89
2021/03/19 04:37:51;;;;;;;7.25;3.78;;;4.10;91.60;;;;;;4972174;28;20050;-88
2021/03/19 04:40:18;;;;;;;6.68;3.50;;;4.10;91.60;;;;;;4937201;29;20118;-88
2021/03/19 04:42:44;;;;;;;7.40;3.20;;;4.10;91.60;;;;;;4992410;28;20103;-89
2021/03/19 04:45:12;;;;;;;9.10;4.18;;;4.10;91.60;;;;;;4977920;28;20046;-88
2021/03/19 04:47:38;;;;;;;6.55;3.50;;;4.10;91.60;;;;;;4993164;28;20088;-89
2021/03/19 04:50:06;;;;;;;6.43;3.70;;;4.00;91.60;;;;;;4976826;28;20054;-87
2021/03/19 04:52:32;;;;;;;5.45;3.28;;;4.00;91.50;;;;;;4992670;28;20117;-89
2021/03/19 04:55:01;;;;;;;6.13;3.40;;;4.00;91.60;;;;;;4992457;28;20145;-88
2021/03/19 04:57:27;;;;;;;7.40;3.50;;;4.00;91.60;;;;;;4994837;28;20018;-88
2021/03/19 04:59:52;;;;;;;7.07;3.33;;;4.00;91.60;;;;;;4993614;28;20109;-88
2021/03/19 05:02:29;;;;;;;7.22;3.55;;;3.90;91.60;;;;;;4960776;28;20049;-87
2021/03/19 05:04:54;;;;;;;5.30;3.25;;;3.90;91.60;;;;;;4993441;28;20054;-87
2021/03/19 05:07:20;;;;;;;7.68;3.28;;;3.90;91.60;;;;;;4960006;28;20026;-89
2021/03/19 05:09:46;;;;;;;7.72;3.38;;;3.90;91.60;;;;;;4959942;28;20491;-88
2021/03/19 05:12:11;;;;;;;6.43;3.10;;;3.90;91.60;;;;;;4975829;28;20033;-88
2021/03/19 05:14:37;;;;;;;6.97;3.00;;;3.90;91.60;;;;;;4975851;28;20039;-88
2021/03/19 05:17:03;;;;;;;6.55;3.50;;;3.90;91.60;;;;;;4975700;28;20030;-88
2021/03/19 05:19:28;;;;;;;7.97;3.83;;;3.90;91.60;;;;;;4975639;28;20037;-88
2021/03/19 05:21:54;;;;;;;5.93;3.70;;;3.80;91.60;;;;;;4976496;28;20062;-88
2021/03/19 05:24:19;;;;;;;8.75;3.63;;;3.80;91.60;;;;;;4960368;28;20031;-87
2021/03/19 05:26:45;;;;;;;5.18;2.95;;;3.80;91.60;;;;;;4959328;28;20108;-88
2021/03/19 05:29:12;;;;;;;6.82;3.80;;;3.80;91.60;;;;;;4959500;28;20109;-89
2021/03/19 05:31:38;;;;;;;4.82;2.83;;;3.80;91.60;;;;;;4991642;28;20125;-90
2021/03/19 05:34:04;;;;;;;6.82;3.15;;;3.70;91.60;;;;;;4993126;28;20015;-88
2021/03/19 05:36:32;;;;;;;5.65;3.50;;;3.70;91.70;;;;;;4976380;28;20483;-88
2021/03/19 05:38:59;;;;;;;6.78;3.00;;;3.70;91.70;;;;;;4992073;28;20506;-87
2021/03/19 05:41:27;;;;;;;6.50;2.88;;;3.70;91.60;;;;;;4975787;28;20023;-89
2021/03/19 05:44:01;;;;;;;5.97;3.00;;;3.70;91.60;;;;;;4992657;28;20022;-88
2021/03/19 05:46:31;;;;;;;5.65;3.13;;;3.70;91.60;;;;;;4991256;28;20423;-88
2021/03/19 05:49:00;;;;;;;5.03;3.10;;;3.60;91.60;;;;;;4991141;28;20463;-88
2021/03/19 05:51:36;;;;;;;5.00;2.60;;;3.60;91.70;;;;;;4991383;28;20490;-89
2021/03/19 05:54:23;;;;;;;8.35;3.28;;;3.60;91.60;;;;;;4992959;28;20097;-88
2021/03/19 05:57:04;;;;;;;7.65;3.35;;;3.60;91.60;;;;;;4993875;28;20022;-88
2021/03/19 05:59:36;;;;;;;6.68;3.00;;;3.60;91.60;;;;;;4991759;28;20042;-89
2021/03/19 06:02:02;;;;;;;6.53;2.92;;;3.60;91.60;;;;;;4975877;28;20030;-87
2021/03/19 06:04:30;;;;;;;7.00;2.70;;;3.60;91.90;;;;;;4995266;28;20045;-88
2021/03/19 06:07:02;;;;;;;4.60;2.60;;;3.50;91.90;;;;;;4995695;28;20108;-89
2021/03/19 06:09:35;;;;;;;6.65;3.00;;;3.50;91.70;;;;;;4997235;28;20034;-88
2021/03/19 06:12:11;;;;;;;8.30;3.35;;;3.50;91.60;;;;;;4996077;28;20018;-87
2021/03/19 06:14:47;;;;;;;5.10;2.75;;;3.50;91.60;;;;;;4997099;28;20022;-88
2021/03/19 06:17:41;;;;;;;7.32;3.13;;;3.50;91.60;;;;;;4995112;28;20026;-87
2021/03/19 06:20:11;;;;;;;5.15;2.53;;;3.50;91.60;;;;;;4968020;28;20023;-88
2021/03/19 06:22:58;;;;;;;6.43;2.95;;;3.50;91.70;;;;;;4980183;28;20101;-88
2021/03/19 06:25:26;;;;;;;6.38;2.80;;;3.50;91.70;;;;;;4995337;28;20054;-88
2021/03/19 06:27:55;;;;;;;5.22;2.65;;;3.50;91.90;;;;;;5004208;28;20134;-88
2021/03/19 06:30:40;;;;;;;5.80;2.97;;;3.50;91.70;;;;;;4978369;28;20026;-88
2021/03/19 06:33:25;;;;;;;4.78;2.67;;;3.50;91.70;;;;;;4996030;28;20045;-88
2021/03/19 06:36:12;;;;;;;5.95;2.72;;;3.50;91.70;;;;;;4994718;28;20076;-89
2021/03/19 06:38:50;;;;;;;5.72;2.92;;;3.50;91.70;;;;;;4994802;28;20497;-87
2021/03/19 06:41:18;;;;;;;6.13;3.30;;;3.50;91.70;;;;;;4993741;28;20078;-88
2021/03/19 06:43:44;;;;;;;5.63;3.35;;;3.50;91.80;;;;;;4994159;28;20081;-84
2021/03/19 06:46:25;;;;;;;6.55;3.20;;;3.50;91.70;;;;;;4977941;28;20038;-87
2021/03/19 06:48:54;;;;;;;6.90;2.95;;;3.50;91.90;;;;;;4977846;28;20077;-88
2021/03/19 06:51:33;;;;;;;4.93;2.85;;;3.50;91.80;;;;;;4992013;28;20026;-89
2021/03/19 06:54:09;;;;;;;6.07;3.00;;;3.50;91.80;;;;;;4978431;28;20098;-89
2021/03/19 06:56:37;;;;;;;6.20;3.13;;;3.50;91.80;;;;;;4991865;28;20023;-89
2021/03/19 06:59:24;;;;;;;6.63;3.05;;;3.60;91.90;;;;;;4994936;28;20019;-87
2021/03/19 07:01:50;;;;;;;5.00;3.08;;;3.60;91.90;;;;;;4975739;28;20322;-87
2021/03/19 07:04:38;;;;;;;4.93;2.83;;;3.60;91.90;;;;;;4993152;28;20042;-87
2021/03/19 07:07:11;;;;;;;9.15;3.35;;;3.60;91.90;;;;;;4995270;28;20031;-87
2021/03/19 07:09:41;;;;;;;5.97;3.42;;;3.60;91.90;;;;;;4995262;28;20105;-87
2021/03/19 07:12:22;;;;;;;6.03;3.65;;;3.60;91.90;;;;;;4993602;28;20500;-87
2021/03/19 07:15:11;;;;;;;5.32;2.63;;;3.70;91.90;;;;;;4994132;28;20096;-87
2021/03/19 07:17:56;;;;;;;4.63;2.72;;;3.70;91.90;;;;;;4994406;28;20026;-87
2021/03/19 07:20:47;;;;;;;4.90;2.92;;;3.70;91.90;;;;;;4993900;28;20027;-87
2021/03/19 07:23:51;;;;;;;5.47;2.67;;;3.80;91.90;;;;;;5008523;28;20018;-87
2021/03/19 07:26:24;;;;;;;5.38;2.90;;;3.80;91.90;;;;;;4985775;28;20125;-87
2021/03/19 07:29:07;;;;;;;7.78;3.13;;;3.90;91.80;;;;;;4978617;28;20041;-88
2021/03/19 07:31:57;;;;;;;8.77;3.38;;;3.90;91.70;;;;;;4995298;28;20054;-87
2021/03/19 07:34:49;;;;;;;4.80;2.67;;;4.00;91.70;;;;;;4988877;28;20375;-87
2021/03/19 07:37:29;;;;;;;6.05;3.05;;;4.00;91.70;;;;;;4991921;28;20037;-87
2021/03/19 07:40:19;;;;;;;5.45;2.80;;;4.00;91.60;;;;;;4995583;28;20041;-88
2021/03/19 07:43:00;;;;;;;8.38;3.00;;;4.10;91.60;;;;;;4999508;28;20026;-89
2021/03/19 07:45:36;;;;;;;5.10;2.83;;;4.20;91.60;;;;;;4995365;28;20029;-86
2021/03/19 07:48:21;;;;;;;5.28;2.42;;;4.20;91.50;;;;;;4992315;28;20035;-86
2021/03/19 07:51:10;;;;;;;5.07;2.67;;;4.30;91.40;;;;;;4996608;28;20026;-90
2021/03/19 07:53:50;;;;;;;5.75;2.58;;;4.30;91.40;;;;;;4994328;28;20383;-89
2021/03/19 07:57:02;;;;;;;5.10;3.13;;;4.40;91.30;;;;;;4996284;28;20057;-90
2021/03/19 07:59:34;;;;;;;5.40;2.42;;;4.50;91.20;;;;;;4976966;28;20035;-88
2021/03/19 08:02:12;;;;;;;4.05;2.25;;;4.50;90.90;;;;;;4996231;28;20085;-91
2021/03/19 08:04:55;;;;;;;6.20;3.10;;;4.60;90.90;;;;;;5002138;28;20098;-94
2021/03/19 08:07:47;;;;;;;3.30;2.00;;;4.60;90.80;;;;;;5023674;28;20046;-90
2021/03/19 08:10:33;;;;;;;5.05;1.98;;;4.60;90.80;;;;;;4999521;28;20014;-94
2021/03/19 08:13:33;;;;;;;5.60;2.20;;;4.70;90.70;;;;;;4989956;28;20030;-93
2021/03/19 08:16:12;;;;;;;5.72;2.50;;;4.80;90.40;;;;;;5002741;28;20030;-96
2021/03/19 08:19:04;;;;;;;5.88;2.22;;;4.80;90.20;;;;;;4997325;28;20030;-96
2021/03/19 08:21:44;;;;;;;4.32;2.20;;;4.90;90.10;;;;;;4972416;28;20034;-93
2021/03/19 08:24:28;;;;;;;5.53;2.67;;;4.90;90.10;;;;;;5010661;28;20067;-95
2021/03/19 08:27:12;;;;;;;4.38;2.15;;;5.00;90.10;;;;;;5006189;28;20058;-93
2021/03/19 08:30:03;;;;;;;4.70;1.90;;;5.00;89.80;;;;;;4986102;28;20030;-95
2021/03/19 08:32:56;;;;;;;5.03;2.58;;;5.10;90.00;;;;;;5013087;28;20019;-93
2021/03/19 08:35:32;;;;;;;4.10;2.03;;;5.20;89.90;;;;;;4998273;28;20029;-93
2021/03/19 08:38:20;;;;;;;5.55;2.10;;;5.30;89.60;;;;;;4996995;28;20466;-96
2021/03/19 08:40:58;;;;;;;5.53;2.78;;;5.40;89.20;;;;;;5010811;28;20026;-87
2021/03/19 08:43:29;;;;;;;3.80;1.95;;;5.40;88.80;;;;;;5013220;28;20059;-93
2021/03/19 08:46:07;;;;;;;4.43;1.80;;;5.50;88.60;;;;;;5011748;28;20054;-94
2021/03/19 08:48:45;;;;;;;4.72;1.92;;;5.60;88.50;;;;;;4985832;28;20033;-93
2021/03/19 08:51:32;;;;;;;4.03;1.75;;;5.70;87.90;;;;;;4996132;28;20543;-93
2021/03/19 08:54:13;;;;;;;3.30;2.13;;;5.80;87.80;;;;;;4996749;28;20026;-85
2021/03/19 08:56:48;;;;;;;4.35;1.50;;;5.90;86.60;;;;;;4997216;28;20471;-92
2021/03/19 08:59:33;;;;;;;3.75;1.40;;;6.00;86.90;;;;;;5002491;28;20100;-91
2021/03/19 09:02:00;;;;;;;4.47;1.98;;;6.10;87.10;;;;;;4970534;28;20065;-85
2021/03/19 09:05:00;;;;;;;4.28;2.03;;;6.20;86.40;;;;;;4988152;28;20033;-89
2021/03/19 09:07:34;;;;;;;3.42;1.50;;;6.30;85.80;;;;;;5002955;28;20049;-89
2021/03/19 09:10:25;;;;;;;5.45;1.70;;;6.40;85.10;;;;;;4994523;28;20451;-86
2021/03/19 09:12:57;;;;;;;3.22;1.60;;;6.50;85.20;;;;;;5003478;28;20018;-89
2021/03/19 09:15:23;;;;;;;2.60;1.30;;;6.60;85.30;;;;;;5008743;28;20030;-90
2021/03/19 09:17:56;;;;;;;2.45;1.20;;;6.60;84.60;;;;;;4978026;28;20022;-89
2021/03/19 09:20:28;;;;;;;2.80;1.42;;;6.80;85.00;;;;;;4981980;28;20022;-90
2021/03/19 09:23:18;;;;;;;3.33;1.45;;;6.90;84.40;;;;;;4977944;28;20514;-90
2021/03/19 09:26:01;;;;;;;3.45;1.40;;;7.00;84.20;;;;;;4986023;28;20032;-86
2021/03/19 09:28:55;;;;;;;2.88;1.60;;;7.10;84.30;;;;;;4993444;28;20044;-90
2021/03/19 09:31:26;;;;;;;4.18;1.80;;;7.20;84.10;;;;;;4992334;28;20031;-88
2021/03/19 09:33:53;;;;;;;4.35;1.85;;;7.40;83.50;;;;;;4990704;28;20483;-92
2021/03/19 09:36:53;;;;;;;4.18;1.65;;;7.50;82.60;;;;;;4991709;28;20546;-91
2021/03/19 09:39:54;;;;;;;3.40;2.20;;;7.60;82.90;;;;;;4983415;28;20057;-91
2021/03/19 09:42:20;;;;;;;3.33;1.70;;;7.70;82.40;;;;;;4996385;28;20023;-90
2021/03/19 09:44:58;;;;;;;3.83;2.15;;;7.80;81.00;;;;;;4995685;28;20415;-91
2021/03/19 09:47:29;;;;;;;5.95;3.10;;;7.90;80.50;;;;;;4996377;28;20030;-91
2021/03/19 09:50:07;;;;;;;5.75;2.17;;;8.10;81.30;;;;;;4996939;28;20029;-91
2021/03/19 09:52:32;;;;;;;4.30;2.03;;;8.20;81.60;;;;;;4996247;28;20030;-90
2021/03/19 09:54:58;;;;;;;5.50;2.65;;;8.30;81.20;;;;;;4977321;28;20030;-89
2021/03/19 09:57:29;;;;;;;5.60;2.78;;;8.40;81.30;;;;;;4979925;28;20034;-89
2021/03/19 10:00:06;;;;;;;5.60;2.13;;;8.50;80.30;;;;;;4987767;28;20046;-89
2021/03/19 10:02:35;;;;;;;5.10;2.10;;;8.60;78.70;;;;;;4997232;28;20034;-91
2021/03/19 10:05:09;;;;;;;6.20;2.30;;;8.70;77.40;;;;;;4996927;28;20022;-90
2021/03/19 10:07:36;;;;;;;4.40;2.13;;;8.80;76.50;;;;;;4996660;28;20117;-91
2021/03/19 10:10:03;;;;;;;5.10;1.80;;;8.90;76.40;;;;;;4995946;28;20141;-91
2021/03/19 10:12:33;;;;;;;4.70;1.80;;;9.00;76.30;;;;;;4997398;28;20616;-90
2021/03/19 10:15:24;;;;;;;4.00;1.70;;;9.10;76.60;;;;;;4997332;28;20045;-90
2021/03/19 10:17:55;;;;;;;;;;;9.20;76.20;;;;;;4995710;28;20022;-91
2021/03/19 10:20:29;;;;;;;3.53;2.08;;;9.30;75.10;;;;;;4979409;28;19906;-91
2021/03/19 10:23:09;;;;;;;3.13;1.80;;;9.40;75.60;;;;;;4996583;28;20022;-89
2021/03/19 10:25:43;;;;;;;5.57;2.03;;;9.50;75.90;;;;;;4997126;28;20039;-89
2021/03/19 10:28:12;;;;;;;4.55;2.28;;;9.60;74.90;;;;;;4975806;28;20065;-89
2021/03/19 10:31:00;;;;;;;3.85;2.17;;;9.70;75.10;;;;;;4988239;28;20096;-88
2021/03/19 10:33:35;;;;;;;4.07;2.20;;;9.80;74.80;;;;;;4962906;28;20030;-89
2021/03/19 10:36:05;;;;;;;5.38;2.15;;;9.90;73.80;;;;;;4976348;28;20081;-87
2021/03/19 10:38:46;;;;;;;7.13;2.63;;;10.00;73.60;;;;;;4973995;28;20444;-85
2021/03/19 10:41:45;;;;;;;6.15;2.45;;;10.10;72.70;;;;;;4973359;28;20015;-84
2021/03/19 10:44:22;;;;;;;5.88;2.63;;;10.20;73.30;;;;;;4990314;28;20023;-85
2021/03/19 10:46:56;;;;;;;5.05;2.22;;;10.30;72.90;;;;;;4949937;28;20048;-85
2021/03/19 10:49:43;;;;;;;4.80;2.20;;;10.40;72.90;;;;;;4975107;28;20022;-89
2021/03/19 10:52:17;;;;;;;7.53;2.65;;;10.50;73.10;;;;;;4976301;28;20018;-90
2021/03/19 10:54:45;;;;;;;6.75;2.53;;;10.60;72.70;;;;;;4976206;28;20046;-88
2021/03/19 10:57:39;;;;;;;4.60;2.47;;;10.70;73.00;;;;;;4975910;28;20490;-87
2021/03/19 11:00:30;;;;;;;6.22;2.22;;;10.80;73.10;;;;;;4975758;28;20105;-89
2021/03/19 11:02:58;;;;;;;5.10;2.10;;;10.90;72.80;;;;;;4991189;28;20019;-88
2021/03/19 11:05:23;;;;;;;4.90;2.67;;;11.10;72.20;;;;;;4975913;28;20038;-88
2021/03/19 11:07:49;;;;;;;6.50;2.20;;;11.20;71.40;;;;;;4975976;28;20391;-89
2021/03/19 11:10:17;;;;;;;6.75;2.58;;;11.30;71.30;;;;;;4976147;28;20038;-87
2021/03/19 11:12:55;;;;;;;5.43;2.75;;;11.40;69.60;;;;;;4976147;28;20038;-90
2021/03/19 11:15:31;;;;;;;4.03;2.05;;;11.50;68.70;;;;;;4974960;28;20514;-89
2021/03/19 11:18:18;;;;;;;4.85;2.05;;;11.60;69.30;;;;;;4975675;28;20019;-88
2021/03/19 11:21:08;;;;;;;5.15;2.10;;;11.60;68.60;;;;;;4990404;28;20038;-89
2021/03/19 11:23:39;;;;;;;3.78;1.83;;;11.80;68.40;;;;;;4975858;28;20082;-88
2021/03/19 11:26:26;;;;;;;4.75;2.13;;;11.80;67.00;;;;;;4993937;28;20034;-89
2021/03/19 11:29:21;;;;;;;3.33;1.80;;;11.90;67.80;;;;;;4978992;28;20033;-88
2021/03/19 11:32:06;;;;;;;3.95;1.80;;;12.00;68.00;;;;;;4968939;28;20519;-89
2021/03/19 11:34:40;;;;;;;3.85;1.80;;;12.10;67.30;;;;;;4974395;28;20558;-88
2021/03/19 11:37:18;;;;;;;5.72;1.85;;;12.20;67.30;;;;;;4975151;28;20035;-88
2021/03/19 11:39:49;;;;;;;4.68;1.83;;;12.20;65.10;;;;;;4971760;28;20480;-88
2021/03/19 11:42:18;;;;;;;3.53;2.00;;;12.30;64.50;;;;;;4974741;28;20054;-88
2021/03/19 11:44:46;;;;;;;2.85;1.88;;;12.40;64.50;;;;;;4974935;28;20070;-88
2021/03/19 11:47:16;;;;;;;4.03;1.98;;;12.50;62.50;;;;;;4975072;28;20089;-89
2021/03/19 11:49:42;;;;;;;2.78;1.50;;;12.50;62.50;;;;;;4977138;28;20033;-86
2021/03/19 11:52:11;;;;;;;4.72;1.95;;;12.60;62.80;;;;;;4995527;28;20034;-88
2021/03/19 11:54:36;;;;;;;3.65;1.88;;;12.70;63.50;;;;;;4994695;28;20022;-88
2021/03/19 11:57:02;;;;;;;2.95;1.58;;;12.80;62.90;;;;;;4974575;28;20034;-89
2021/03/19 11:59:28;;;;;;;3.03;1.73;;;12.90;60.80;;;;;;4971673;28;20480;-88
2021/03/19 12:01:53;;;;;;;4.72;1.63;;;13.00;60.50;;;;;;4973638;28;20110;-88
2021/03/19 12:04:22;;;;;;;4.20;1.60;;;13.00;60.80;;;;;;4974089;28;20045;-88
2021/03/19 12:06:47;;;;;;;1.98;1.38;;;13.10;61.00;;;;;;4963223;28;20022;-88
2021/03/19 12:09:14;;;;;;;3.28;1.52;;;13.20;60.80;;;;;;4986368;28;20094;-89
2021/03/19 12:11:41;;;;;;;3.30;1.60;;;13.30;60.70;;;;;;4974848;28;20030;-89
2021/03/19 12:14:20;;;;;;;3.95;1.40;;;13.40;59.50;;;;;;4976002;28;20078;-88
2021/03/19 12:16:46;;;;;;;2.55;1.40;;;13.40;59.80;;;;;;4974166;28;20031;-88
2021/03/19 12:19:13;;;;;;;2.25;1.33;;;13.50;60.00;;;;;;4975255;28;20037;-89
2021/03/19 12:21:38;;;;;;;4.22;1.23;;;13.60;59.20;;;;;;4975236;28;20046;-88
2021/03/19 12:24:04;;;;;;;1.30;0.90;;;13.60;58.00;;;;;;4942010;28;20467;-88
2021/03/19 12:26:30;;;;;;;1.48;0.95;;;13.70;57.70;;;;;;4940260;28;20051;-87
2021/03/19 12:28:55;;;;;;;1.15;0.90;;;13.70;56.40;;;;;;4957027;28;20558;-88
2021/03/19 12:31:21;;;;;;;1.55;0.95;;;13.80;55.80;;;;;;4940770;28;20111;-88
2021/03/19 12:33:47;;;;;;;2.05;1.20;;;13.80;54.20;;;;;;4974147;28;20113;-88
2021/03/19 12:36:13;;;;;;;2.60;1.10;;;13.90;53.10;;;;;;4957804;28;20477;-89
2021/03/19 12:38:38;;;;;;;2.28;1.20;;;13.90;52.80;;;;;;4974424;28;20113;-88
2021/03/19 12:41:05;;;;;;;2.72;1.30;;;13.90;52.90;;;;;;4973808;28;20471;-87
2021/03/19 12:43:30;;;;;;;2.78;1.23;;;14.00;53.10;;;;;;4941552;28;20031;-90
2021/03/19 12:45:56;;;;;;;2.33;1.05;;;14.10;54.30;;;;;;4957418;28;20081;-89
2021/03/19 12:48:23;;;;;;;1.58;1.05;;;14.10;53.80;;;;;;4957999;28;20027;-90
2021/03/19 12:50:49;;;;;;;2.65;1.30;;;14.20;53.70;;;;;;4974825;28;20038;-89
2021/03/19 12:53:20;;;;;;;2.42;1.00;;;14.30;51.60;;;;;;4957168;28;20023;-90
2021/03/19 12:55:45;;;;;;;1.73;1.10;;;14.30;52.90;;;;;;4972917;28;20031;-90
2021/03/19 12:58:12;;;;;;;2.42;1.30;;;14.40;53.20;;;;;;4957702;28;20046;-88
2021/03/19 13:00:40;;;;;;;3.10;1.20;;;14.50;53.90;;;;;;4942090;28;20039;-90
2021/03/19 13:03:07;;;;;;;1.45;1.05;;;14.60;53.60;;;;;;4975784;28;20031;-90
2021/03/19 13:05:34;;;;;;;1.63;1.20;;;14.70;53.60;;;;;;4974408;28;20042;-91
2021/03/19 13:08:00;;;;;;;3.60;1.42;;;14.80;54.00;;;;;;4975520;28;20039;-87
2021/03/19 13:10:29;;;;;;;1.92;1.00;;;14.90;53.30;;;;;;4962832;28;20023;-89
2021/03/19 13:12:55;;;;;;;1.70;1.20;;;15.10;53.50;;;;;;4984068;28;20050;-90
2021/03/19 13:15:23;;;;;;;1.90;1.10;;;15.20;53.50;;;;;;4976629;28;20062;-91
2021/03/19 13:17:49;;;;;;;2.45;1.00;;;15.30;52.70;;;;;;4974789;28;20316;-92
2021/03/19 13:20:17;;;;;;;1.45;0.95;;;15.50;52.50;;;;;;4942587;28;20026;-92
2021/03/19 13:22:43;;;;;;;1.58;0.80;;;15.70;50.40;;;;;;4975334;28;20113;-92
2021/03/19 13:25:13;;;;;;;1.67;0.82;;;15.80;49.70;;;;;;4941026;28;20047;-89
2021/03/19 13:27:39;;;;;;;1.50;1.00;;;16.00;49.30;;;;;;4987271;28;20046;-91
2021/03/19 13:30:09;;;;;;;2.58;1.05;;;16.20;50.10;;;;;;4993554;28;20022;-89